sensor_id;sensor_type;location;lat;lon;timestamp;pressure;altitude;pressure_sealevel;temperature;humidity
4085;BME280;2057;50.858;6.572;2023-02-19T00:03:58;100657.63;;;9.50;100.00
4085;BME280;2057;50.858;6.572;2023-02-19T00:06:26;100647.41;;;9.49;100.00
4085;BME280;2057;50.858;6.572;2023-02-19T00:08:52;100651.25;;;9.42;100.00
4085;BME280;2057;50.858;6.572;2023-02-19T00:11:20;100650.81;;;9.49;100.00
4085;BME280;2057;50.858;6.572;2023-02-19T00:13:47;100645.91;;;9.52;100.00
4085;BME280;2057;50.858;6.572;2023-02-19T00:16:28;100644.88;;;9.49;100.00
4085;BME280;2057;50.858;6.572;2023-02-19T00:18:55;100639.19;;;9.53;100.00
4085;BME280;2057;50.858;6.572;2023-02-19T00:21:21;100637.69;;;9.56;100.00
4085;BME280;2057;50.858;6.572;2023-02-19T00:23:51;100632.78;;;9.60;100.00
4085;BME280;2057;50.858;6.572;2023-02-19T00:26:17;100642.94;;;9.60;100.00
4085;BME280;2057;50.858;6.572;2023-02-19T00:28:43;100637.94;;;9.61;100.00
4085;BME280;2057;50.858;6.572;2023-02-19T00:31:15;100625.44;;;9.64;100.00
4085;BME280;2057;50.858;6.572;2023-02-19T00:33:40;100624.56;;;9.64;100.00
4085;BME280;2057;50.858;6.572;2023-02-19T00:36:06;100631.81;;;9.57;100.00
4085;BME280;2057;50.858;6.572;2023-02-19T00:38:35;100625.47;;;9.49;100.00
4085;BME280;2057;50.858;6.572;2023-02-19T00:41:01;100633.94;;;9.50;100.00
4085;BME280;2057;50.858;6.572;2023-02-19T00:43:44;100618.72;;;9.50;100.00
4085;BME280;2057;50.858;6.572;2023-02-19T00:46:09;100622.16;;;9.50;100.00
4085;BME280;2057;50.858;6.572;2023-02-19T00:48:35;100614.63;;;9.52;100.00
4085;BME280;2057;50.858;6.572;2023-02-19T00:51:00;100613.66;;;9.50;100.00
4085;BME280;2057;50.858;6.572;2023-02-19T00:53:25;100617.69;;;9.46;100.00
4085;BME280;2057;50.858;6.572;2023-02-19T00:55:50;100607.78;;;9.51;100.00
4085;BME280;2057;50.858;6.572;2023-02-19T00:58:16;100599.59;;;9.55;100.00
4085;BME280;2057;50.858;6.572;2023-02-19T01:00:41;100602.91;;;9.54;100.00
4085;BME280;2057;50.858;6.572;2023-02-19T01:03:06;100594.53;;;9.55;100.00
4085;BME280;2057;50.858;6.572;2023-02-19T01:05:32;100594.19;;;9.49;100.00
4085;BME280;2057;50.858;6.572;2023-02-19T01:07:57;100598.69;;;9.54;100.00
4085;BME280;2057;50.858;6.572;2023-02-19T01:10:23;100603.78;;;9.54;100.00
4085;BME280;2057;50.858;6.572;2023-02-19T01:12:48;100602.91;;;9.54;100.00
4085;BME280;2057;50.858;6.572;2023-02-19T01:15:13;100601.16;;;9.53;100.00
4085;BME280;2057;50.858;6.572;2023-02-19T01:17:39;100596.97;;;9.53;100.00
4085;BME280;2057;50.858;6.572;2023-02-19T01:20:04;100594.53;;;9.55;100.00
4085;BME280;2057;50.858;6.572;2023-02-19T01:22:30;100608.69;;;9.51;100.00
4085;BME280;2057;50.858;6.572;2023-02-19T01:24:55;100597.06;;;9.55;100.00
4085;BME280;2057;50.858;6.572;2023-02-19T01:27:20;100582.63;;;9.54;100.00
4085;BME280;2057;50.858;6.572;2023-02-19T01:29:46;100586.66;;;9.50;100.00
4085;BME280;2057;50.858;6.572;2023-02-19T01:32:13;100598.38;;;9.48;100.00
4085;BME280;2057;50.858;6.572;2023-02-19T01:34:39;100609.81;;;9.56;100.00
4085;BME280;2057;50.858;6.572;2023-02-19T01:37:04;100598.88;;;9.57;100.00
4085;BME280;2057;50.858;6.572;2023-02-19T01:39:32;100592.94;;;9.57;100.00
4085;BME280;2057;50.858;6.572;2023-02-19T01:41:57;100596.88;;;9.52;100.00
4085;BME280;2057;50.858;6.572;2023-02-19T01:46:48;100599.84;;;9.60;100.00
4085;BME280;2057;50.858;6.572;2023-02-19T01:49:46;100583.13;;;9.63;100.00
4085;BME280;2057;50.858;6.572;2023-02-19T01:52:18;100590.56;;;9.60;100.00
4085;BME280;2057;50.858;6.572;2023-02-19T01:54:45;100598.28;;;9.62;100.00
4085;BME280;2057;50.858;6.572;2023-02-19T01:57:19;100593.09;;;9.60;100.00
4085;BME280;2057;50.858;6.572;2023-02-19T01:59:46;100600.25;;;9.67;100.00
4085;BME280;2057;50.858;6.572;2023-02-19T02:02:14;100626.22;;;9.63;100.00
4085;BME280;2057;50.858;6.572;2023-02-19T02:04:39;100616.28;;;9.66;100.00
4085;BME280;2057;50.858;6.572;2023-02-19T02:07:05;100611.19;;;9.66;100.00
4085;BME280;2057;50.858;6.572;2023-02-19T02:09:54;100601.84;;;9.65;100.00
4085;BME280;2057;50.858;6.572;2023-02-19T02:12:38;100602.78;;;9.67;100.00
4085;BME280;2057;50.858;6.572;2023-02-19T02:15:04;100612.91;;;9.67;100.00
4085;BME280;2057;50.858;6.572;2023-02-19T02:31:13;100605.25;;;9.51;100.00
4085;BME280;2057;50.858;6.572;2023-02-19T02:34:14;100601.88;;;9.50;100.00
4085;BME280;2057;50.858;6.572;2023-02-19T02:36:43;100616.19;;;9.50;100.00
4085;BME280;2057;50.858;6.572;2023-02-19T02:39:13;100604.22;;;9.47;100.00
4085;BME280;2057;50.858;6.572;2023-02-19T02:41:42;100598.56;;;9.51;100.00
4085;BME280;2057;50.858;6.572;2023-02-19T02:44:08;100609.41;;;9.49;100.00
4085;BME280;2057;50.858;6.572;2023-02-19T02:46:34;100609.41;;;9.49;100.00
4085;BME280;2057;50.858;6.572;2023-02-19T02:49:04;100615.25;;;9.48;100.00
4085;BME280;2057;50.858;6.572;2023-02-19T02:51:37;100613.41;;;9.45;100.00
4085;BME280;2057;50.858;6.572;2023-02-19T02:54:13;100616.63;;;9.42;100.00
4085;BME280;2057;50.858;6.572;2023-02-19T02:56:58;100614.09;;;9.42;100.00
4085;BME280;2057;50.858;6.572;2023-02-19T02:59:27;100616.06;;;9.32;100.00
4085;BME280;2057;50.858;6.572;2023-02-19T03:01:58;100612.03;;;9.35;100.00
4085;BME280;2057;50.858;6.572;2023-02-19T03:07:38;100629.84;;;9.37;100.00
4085;BME280;2057;50.858;6.572;2023-02-19T03:10:09;100623.72;;;9.33;100.00
4085;BME280;2057;50.858;6.572;2023-02-19T03:12:37;100628.91;;;9.35;100.00
4085;BME280;2057;50.858;6.572;2023-02-19T03:15:27;100627.22;;;9.35;100.00
4085;BME280;2057;50.858;6.572;2023-02-19T03:18:14;100624.44;;;9.31;100.00
4085;BME280;2057;50.858;6.572;2023-02-19T03:21:00;100638.00;;;9.31;100.00
4085;BME280;2057;50.858;6.572;2023-02-19T03:23:30;100632.28;;;9.35;100.00
4085;BME280;2057;50.858;6.572;2023-02-19T03:26:16;100632.28;;;9.35;100.00
4085;BME280;2057;50.858;6.572;2023-02-19T03:28:44;100638.00;;;9.31;100.00
4085;BME280;2057;50.858;6.572;2023-02-19T03:31:32;100650.75;;;9.33;100.00
4085;BME280;2057;50.858;6.572;2023-02-19T03:34:00;100646.25;;;9.29;100.00
4085;BME280;2057;50.858;6.572;2023-02-19T03:36:35;100646.44;;;9.32;100.00
4085;BME280;2057;50.858;6.572;2023-02-19T03:39:06;100646.19;;;9.27;100.00
4085;BME280;2057;50.858;6.572;2023-02-19T03:41:35;100624.34;;;9.29;100.00
4085;BME280;2057;50.858;6.572;2023-02-19T03:46:50;100646.78;;;9.38;100.00
4085;BME280;2057;50.858;6.572;2023-02-19T03:49:53;100653.97;;;9.30;100.00
4085;BME280;2057;50.858;6.572;2023-02-19T03:52:34;100649.06;;;9.33;100.00
4085;BME280;2057;50.858;6.572;2023-02-19T03:58:13;100657.56;;;9.34;100.00
4085;BME280;2057;50.858;6.572;2023-02-19T04:01:05;100665.03;;;9.32;100.00
4085;BME280;2057;50.858;6.572;2023-02-19T04:06:02;100671.44;;;9.40;100.00
4085;BME280;2057;50.858;6.572;2023-02-19T04:08:30;100669.25;;;9.32;100.00
4085;BME280;2057;50.858;6.572;2023-02-19T04:10:59;100667.25;;;9.41;100.00
4085;BME280;2057;50.858;6.572;2023-02-19T04:13:29;100657.63;;;9.35;100.00
4085;BME280;2057;50.858;6.572;2023-02-19T04:16:03;100668.41;;;9.31;100.00
4085;BME280;2057;50.858;6.572;2023-02-19T04:18:34;100669.34;;;9.33;100.00
4085;BME280;2057;50.858;6.572;2023-02-19T04:21:02;100680.25;;;9.32;100.00
4085;BME280;2057;50.858;6.572;2023-02-19T04:23:32;100682.88;;;9.34;100.00
4085;BME280;2057;50.858;6.572;2023-02-19T04:26:00;100691.97;;;9.30;100.00
4085;BME280;2057;50.858;6.572;2023-02-19T04:28:28;100696.25;;;9.31;100.00
4085;BME280;2057;50.858;6.572;2023-02-19T04:30:53;100689.25;;;9.27;100.00
4085;BME280;2057;50.858;6.572;2023-02-19T04:33:19;100695.22;;;9.28;100.00
4085;BME280;2057;50.858;6.572;2023-02-19T04:35:44;100708.28;;;9.20;100.00
4085;BME280;2057;50.858;6.572;2023-02-19T04:38:09;100712.16;;;9.14;100.00
4085;BME280;2057;50.858;6.572;2023-02-19T04:40:36;100714.69;;;9.14;100.00
4085;BME280;2057;50.858;6.572;2023-02-19T04:43:01;100703.94;;;9.18;100.00
4085;BME280;2057;50.858;6.572;2023-02-19T04:45:27;100715.28;;;9.09;100.00
4085;BME280;2057;50.858;6.572;2023-02-19T04:47:52;100706.97;;;9.12;100.00
4085;BME280;2057;50.858;6.572;2023-02-19T04:50:17;100710.41;;;9.13;100.00
4085;BME280;2057;50.858;6.572;2023-02-19T04:52:43;100712.53;;;9.06;100.00
4085;BME280;2057;50.858;6.572;2023-02-19T04:55:08;100713.16;;;9.02;100.00
4085;BME280;2057;50.858;6.572;2023-02-19T04:57:34;100712.53;;;9.06;100.00
4085;BME280;2057;50.858;6.572;2023-02-19T05:00:00;100709.50;;;9.12;100.00
4085;BME280;2057;50.858;6.572;2023-02-19T05:02:25;100718.69;;;9.10;100.00
4085;BME280;2057;50.858;6.572;2023-02-19T05:04:50;100717.88;;;9.11;100.00
4085;BME280;2057;50.858;6.572;2023-02-19T05:07:16;100717.81;;;9.09;100.00
4085;BME280;2057;50.858;6.572;2023-02-19T05:09:41;100728.28;;;9.16;100.00
4085;BME280;2057;50.858;6.572;2023-02-19T05:12:06;100737.28;;;9.10;100.00
4085;BME280;2057;50.858;6.572;2023-02-19T05:14:32;100757.19;;;9.04;100.00
4085;BME280;2057;50.858;6.572;2023-02-19T05:16:57;100744.19;;;9.13;100.00
4085;BME280;2057;50.858;6.572;2023-02-19T05:19:22;100751.50;;;9.08;100.00
4085;BME280;2057;50.858;6.572;2023-02-19T05:21:48;100748.97;;;9.08;100.00
4085;BME280;2057;50.858;6.572;2023-02-19T05:24:13;100748.97;;;9.08;100.00
4085;BME280;2057;50.858;6.572;2023-02-19T05:26:38;100760.09;;;9.10;100.00
4085;BME280;2057;50.858;6.572;2023-02-19T05:29:04;100764.59;;;9.01;100.00
4085;BME280;2057;50.858;6.572;2023-02-19T05:31:29;100756.31;;;9.04;100.00
4085;BME280;2057;50.858;6.572;2023-02-19T05:33:57;100761.72;;;8.95;100.00
4085;BME280;2057;50.858;6.572;2023-02-19T05:36:23;100770.84;;;8.93;100.00
4085;BME280;2057;50.858;6.572;2023-02-19T05:38:56;100759.47;;;8.86;100.00
4085;BME280;2057;50.858;6.572;2023-02-19T05:41:26;100783.75;;;8.83;100.00
4085;BME280;2057;50.858;6.572;2023-02-19T05:43:53;100779.66;;;8.85;100.00
4085;BME280;2057;50.858;6.572;2023-02-19T05:46:21;100779.28;;;8.78;100.00
4085;BME280;2057;50.858;6.572;2023-02-19T05:48:47;100781.13;;;8.81;100.00
4085;BME280;2057;50.858;6.572;2023-02-19T05:51:16;100785.28;;;8.81;100.00
4085;BME280;2057;50.858;6.572;2023-02-19T05:53:42;100783.56;;;8.79;100.00
4085;BME280;2057;50.858;6.572;2023-02-19T05:58:51;100795.13;;;8.76;100.00
4085;BME280;2057;50.858;6.572;2023-02-19T06:01:19;100805.25;;;8.76;100.00
4085;BME280;2057;50.858;6.572;2023-02-19T06:03:45;100797.69;;;8.76;100.00
4085;BME280;2057;50.858;6.572;2023-02-19T06:06:14;100807.03;;;8.77;100.00
4085;BME280;2057;50.858;6.572;2023-02-19T06:08:40;100810.84;;;8.70;100.00
4085;BME280;2057;50.858;6.572;2023-02-19T06:11:05;100809.28;;;8.72;100.00
4085;BME280;2057;50.858;6.572;2023-02-19T06:13:31;100816.00;;;8.72;100.00
4085;BME280;2057;50.858;6.572;2023-02-19T06:15:56;100813.38;;;8.70;100.00
4085;BME280;2057;50.858;6.572;2023-02-19T06:18:21;100814.16;;;8.69;100.00
4085;BME280;2057;50.858;6.572;2023-02-19T06:20:47;100816.78;;;8.71;100.00
4085;BME280;2057;50.858;6.572;2023-02-19T06:23:12;100818.94;;;8.65;100.00
4085;BME280;2057;50.858;6.572;2023-02-19T06:25:38;100825.06;;;8.68;100.00
4085;BME280;2057;50.858;6.572;2023-02-19T06:28:03;100818.34;;;8.69;100.00
4085;BME280;2057;50.858;6.572;2023-02-19T06:30:29;100821.75;;;8.69;100.00
4085;BME280;2057;50.858;6.572;2023-02-19T06:32:54;100820.00;;;8.68;100.00
4085;BME280;2057;50.858;6.572;2023-02-19T06:35:22;100822.91;;;8.74;100.00
4085;BME280;2057;50.858;6.572;2023-02-19T06:37:47;100825.72;;;8.79;100.00
4085;BME280;2057;50.858;6.572;2023-02-19T06:40:13;100819.78;;;8.78;100.00
4085;BME280;2057;50.858;6.572;2023-02-19T06:42:38;100830.69;;;8.77;100.00
4085;BME280;2057;50.858;6.572;2023-02-19T06:45:04;100831.28;;;8.73;100.00
4085;BME280;2057;50.858;6.572;2023-02-19T06:47:30;100831.09;;;8.70;100.00
4085;BME280;2057;50.858;6.572;2023-02-19T06:49:56;100832.66;;;8.68;100.00
4085;BME280;2057;50.858;6.572;2023-02-19T06:52:22;100836.75;;;8.66;100.00
4085;BME280;2057;50.858;6.572;2023-02-19T06:54:49;100853.69;;;8.67;100.00
4085;BME280;2057;50.858;6.572;2023-02-19T06:57:14;100851.16;;;8.67;100.00
4085;BME280;2057;50.858;6.572;2023-02-19T06:59:40;100857.75;;;8.65;100.00
4085;BME280;2057;50.858;6.572;2023-02-19T07:02:06;100849.19;;;8.63;100.00
4085;BME280;2057;50.858;6.572;2023-02-19T07:04:31;100855.16;;;8.63;100.00
4085;BME280;2057;50.858;6.572;2023-02-19T07:06:56;100858.53;;;8.64;100.00
4085;BME280;2057;50.858;6.572;2023-02-19T07:09:24;100864.78;;;8.56;100.00
4085;BME280;2057;50.858;6.572;2023-02-19T07:11:52;100860.69;;;8.58;100.00
4085;BME280;2057;50.858;6.572;2023-02-19T07:14:18;100868.19;;;8.56;100.00
4085;BME280;2057;50.858;6.572;2023-02-19T07:16:44;100869.75;;;8.54;100.00
4085;BME280;2057;50.858;6.572;2023-02-19T07:19:12;100886.38;;;8.64;100.00
4085;BME280;2057;50.858;6.572;2023-02-19T07:21:39;100886.41;;;8.51;100.00
4085;BME280;2057;50.858;6.572;2023-02-19T07:24:07;100886.78;;;8.57;100.00
4085;BME280;2057;50.858;6.572;2023-02-19T07:26:32;100887.56;;;8.56;100.00
4085;BME280;2057;50.858;6.572;2023-02-19T07:28:58;100898.28;;;8.52;100.00
4085;BME280;2057;50.858;6.572;2023-02-19T07:31:23;100896.59;;;8.52;100.00
4085;BME280;2057;50.858;6.572;2023-02-19T07:33:49;100892.44;;;8.53;100.00
4085;BME280;2057;50.858;6.572;2023-02-19T07:36:17;100909.47;;;8.55;100.00
4085;BME280;2057;50.858;6.572;2023-02-19T07:38:43;100905.28;;;8.56;100.00
4085;BME280;2057;50.858;6.572;2023-02-19T07:41:09;100909.84;;;8.48;100.00
4085;BME280;2057;50.858;6.572;2023-02-19T07:43:36;100917.75;;;8.53;100.00
4085;BME280;2057;50.858;6.572;2023-02-19T07:46:10;100922.69;;;8.51;100.00
4085;BME280;2057;50.858;6.572;2023-02-19T07:48:36;100926.41;;;8.56;100.00
4085;BME280;2057;50.858;6.572;2023-02-19T07:51:03;100933.09;;;8.56;100.00
4085;BME280;2057;50.858;6.572;2023-02-19T07:53:29;100940.53;;;8.53;100.00
4085;BME280;2057;50.858;6.572;2023-02-19T07:56:06;100940.00;;;8.58;100.00
4085;BME280;2057;50.858;6.572;2023-02-19T07:58:32;100948.72;;;8.62;100.00
4085;BME280;2057;50.858;6.572;2023-02-19T08:01:06;100954.53;;;8.61;100.00
4085;BME280;2057;50.858;6.572;2023-02-19T08:03:32;100955.88;;;8.56;100.00
4085;BME280;2057;50.858;6.572;2023-02-19T08:05:57;100959.31;;;8.56;100.00
4085;BME280;2057;50.858;6.572;2023-02-19T08:08:22;100966.13;;;8.57;100.00
4085;BME280;2057;50.858;6.572;2023-02-19T08:10:47;100958.63;;;8.59;100.00
4085;BME280;2057;50.858;6.572;2023-02-19T08:13:33;100966.91;;;8.56;100.00
4085;BME280;2057;50.858;6.572;2023-02-19T08:18:31;100980.25;;;8.67;100.00
4085;BME280;2057;50.858;6.572;2023-02-19T08:20:57;100989.13;;;8.74;100.00
4085;BME280;2057;50.858;6.572;2023-02-19T08:23:24;100989.00;;;8.72;100.00
4085;BME280;2057;50.858;6.572;2023-02-19T08:25:50;100984.91;;;8.74;100.00
4085;BME280;2057;50.858;6.572;2023-02-19T08:28:16;100992.13;;;8.82;100.00
4085;BME280;2057;50.858;6.572;2023-02-19T08:30:43;100996.88;;;8.77;100.00
4085;BME280;2057;50.858;6.572;2023-02-19T08:33:10;101004.31;;;8.87;100.00
4085;BME280;2057;50.858;6.572;2023-02-19T08:35:36;100998.06;;;8.95;100.00
4085;BME280;2057;50.858;6.572;2023-02-19T08:38:03;100996.03;;;8.90;100.00
4085;BME280;2057;50.858;6.572;2023-02-19T08:40:29;101006.16;;;8.90;100.00
4085;BME280;2057;50.858;6.572;2023-02-19T08:42:55;101005.66;;;8.95;100.00
4085;BME280;2057;50.858;6.572;2023-02-19T08:45:20;101001.69;;;8.99;100.00
4085;BME280;2057;50.858;6.572;2023-02-19T08:47:49;101004.91;;;8.97;100.00
4085;BME280;2057;50.858;6.572;2023-02-19T08:50:15;101004.03;;;9.09;100.00
4085;BME280;2057;50.858;6.572;2023-02-19T08:52:40;101003.81;;;9.06;100.00
4085;BME280;2057;50.858;6.572;2023-02-19T08:55:05;101010.47;;;9.04;100.00
4085;BME280;2057;50.858;6.572;2023-02-19T08:57:34;101017.28;;;9.05;100.00
4085;BME280;2057;50.858;6.572;2023-02-19T08:59:59;101018.25;;;9.07;100.00
4085;BME280;2057;50.858;6.572;2023-02-19T09:02:25;101028.75;;;9.00;100.00
4085;BME280;2057;50.858;6.572;2023-02-19T09:04:50;101007.63;;;9.00;100.00
4085;BME280;2057;50.858;6.572;2023-02-19T09:07:18;101018.94;;;8.91;100.00
4085;BME280;2057;50.858;6.572;2023-02-19T09:09:44;101010.25;;;8.88;100.00
4085;BME280;2057;50.858;6.572;2023-02-19T09:12:11;101017.66;;;8.98;100.00
4085;BME280;2057;50.858;6.572;2023-02-19T09:14:37;101017.66;;;8.98;100.00
4085;BME280;2057;50.858;6.572;2023-02-19T09:17:04;101024.59;;;9.01;100.00
4085;BME280;2057;50.858;6.572;2023-02-19T09:19:30;101018.81;;;9.17;100.00
4085;BME280;2057;50.858;6.572;2023-02-19T09:21:55;101018.34;;;9.09;100.00
4085;BME280;2057;50.858;6.572;2023-02-19T09:24:21;101022.13;;;9.16;100.00
4085;BME280;2057;50.858;6.572;2023-02-19T09:26:53;101020.97;;;9.24;100.00
4085;BME280;2057;50.858;6.572;2023-02-19T09:29:20;101031.09;;;9.37;100.00
4085;BME280;2057;50.858;6.572;2023-02-19T09:31:46;101026.78;;;9.50;100.00
4085;BME280;2057;50.858;6.572;2023-02-19T09:34:11;101034.66;;;9.54;100.00
4085;BME280;2057;50.858;6.572;2023-02-19T09:36:38;101038.09;;;9.41;100.00
4085;BME280;2057;50.858;6.572;2023-02-19T09:39:04;101038.50;;;9.48;100.00
4085;BME280;2057;50.858;6.572;2023-02-19T09:41:53;101045.41;;;9.37;100.00
4085;BME280;2057;50.858;6.572;2023-02-19T09:44:33;101037.50;;;9.32;100.00
4085;BME280;2057;50.858;6.572;2023-02-19T09:47:00;101046.59;;;9.29;100.00
4085;BME280;2057;50.858;6.572;2023-02-19T09:49:38;101054.59;;;9.21;100.00
4085;BME280;2057;50.858;6.572;2023-02-19T09:54:48;101058.28;;;9.13;100.00
4085;BME280;2057;50.858;6.572;2023-02-19T09:57:19;101068.41;;;9.13;100.00
4085;BME280;2057;50.858;6.572;2023-02-19T09:59:49;101061.97;;;9.05;100.00
4085;BME280;2057;50.858;6.572;2023-02-19T10:02:22;101072.41;;;9.09;100.00
4085;BME280;2057;50.858;6.572;2023-02-19T10:04:49;101073.19;;;9.08;100.00
4085;BME280;2057;50.858;6.572;2023-02-19T10:07:18;101068.59;;;9.03;100.00
4085;BME280;2057;50.858;6.572;2023-02-19T10:09:51;101072.63;;;9.13;100.00
4085;BME280;2057;50.858;6.572;2023-02-19T10:12:23;101071.84;;;9.14;100.00
4085;BME280;2057;50.858;6.572;2023-02-19T10:14:58;101087.03;;;9.14;100.00
4085;BME280;2057;50.858;6.572;2023-02-19T10:17:29;101082.84;;;9.01;100.00
4085;BME280;2057;50.858;6.572;2023-02-19T10:19:55;101087.91;;;9.01;100.00
4085;BME280;2057;50.858;6.572;2023-02-19T10:22:23;101092.06;;;9.00;100.00
4085;BME280;2057;50.858;6.572;2023-02-19T10:24:51;101091.13;;;9.12;100.00
4085;BME280;2057;50.858;6.572;2023-02-19T10:27:18;101100.28;;;8.96;100.00
4085;BME280;2057;50.858;6.572;2023-02-19T10:29:45;101110.34;;;8.83;100.00
4085;BME280;2057;50.858;6.572;2023-02-19T10:32:20;101131.59;;;8.85;100.00
4085;BME280;2057;50.858;6.572;2023-02-19T10:35:06;101119.63;;;8.82;100.00
4085;BME280;2057;50.858;6.572;2023-02-19T10:37:32;101123.13;;;8.84;100.00
4085;BME280;2057;50.858;6.572;2023-02-19T10:39:59;101130.34;;;8.91;100.00
4085;BME280;2057;50.858;6.572;2023-02-19T10:42:30;101124.22;;;8.88;100.00
4085;BME280;2057;50.858;6.572;2023-02-19T10:44:58;101138.81;;;8.92;100.00
4085;BME280;2057;50.858;6.572;2023-02-19T10:47:27;101145.63;;;8.79;100.00
4085;BME280;2057;50.858;6.572;2023-02-19T10:49:56;101149.09;;;8.82;100.00
4085;BME280;2057;50.858;6.572;2023-02-19T10:52:33;101165.03;;;8.67;100.00
4085;BME280;2057;50.858;6.572;2023-02-19T10:57:47;101171.03;;;8.81;100.00
4085;BME280;2057;50.858;6.572;2023-02-19T11:02:40;101164.81;;;9.28;100.00
4085;BME280;2057;50.858;6.572;2023-02-19T11:07:55;101169.78;;;9.40;100.00
4085;BME280;2057;50.858;6.572;2023-02-19T11:10:38;101171.03;;;9.33;100.00
4085;BME280;2057;50.858;6.572;2023-02-19T11:13:05;101167.16;;;9.38;100.00
4085;BME280;2057;50.858;6.572;2023-02-19T11:15:35;101169.72;;;9.38;100.00
4085;BME280;2057;50.858;6.572;2023-02-19T11:20:36;101183.91;;;9.23;100.00
4085;BME280;2057;50.858;6.572;2023-02-19T11:23:26;101185.06;;;9.15;100.00
4085;BME280;2057;50.858;6.572;2023-02-19T11:25:54;101184.19;;;9.14;100.00
4085;BME280;2057;50.858;6.572;2023-02-19T11:28:40;101187.00;;;9.05;100.00
4085;BME280;2057;50.858;6.572;2023-02-19T11:31:27;101186.09;;;9.05;100.00
4085;BME280;2057;50.858;6.572;2023-02-19T11:33:59;101174.97;;;9.03;100.00
4085;BME280;2057;50.858;6.572;2023-02-19T11:36:33;101173.53;;;9.06;100.00
4085;BME280;2057;50.858;6.572;2023-02-19T11:41:59;101191.78;;;8.89;100.00
4085;BME280;2057;50.858;6.572;2023-02-19T11:44:44;101190.69;;;8.85;100.00
4085;BME280;2057;50.858;6.572;2023-02-19T11:47:34;101185.91;;;8.76;100.00
4085;BME280;2057;50.858;6.572;2023-02-19T11:50:26;101181.16;;;8.81;100.00
4085;BME280;2057;50.858;6.572;2023-02-19T11:53:29;101185.22;;;8.79;100.00
4085;BME280;2057;50.858;6.572;2023-02-19T11:56:20;101188.34;;;8.75;100.00
4085;BME280;2057;50.858;6.572;2023-02-19T12:17:16;101152.44;;;9.46;100.00
4085;BME280;2057;50.858;6.572;2023-02-19T12:23:23;101149.34;;;9.77;100.00
4085;BME280;2057;50.858;6.572;2023-02-19T12:34:14;101161.72;;;9.72;100.00
4085;BME280;2057;50.858;6.572;2023-02-19T12:37:03;101164.25;;;9.72;100.00
4085;BME280;2057;50.858;6.572;2023-02-19T12:45:23;101167.28;;;9.53;100.00
4085;BME280;2057;50.858;6.572;2023-02-19T12:50:39;101169.78;;;9.40;100.00
4085;BME280;2057;50.858;6.572;2023-02-19T12:55:48;101156.66;;;9.46;100.00
4085;BME280;2057;50.858;6.572;2023-02-19T12:58:28;101180.22;;;9.45;100.00
4085;BME280;2057;50.858;6.572;2023-02-19T13:00:56;101165.13;;;9.33;100.00
4085;BME280;2057;50.858;6.572;2023-02-19T13:03:39;101173.22;;;9.40;100.00
4085;BME280;2057;50.858;6.572;2023-02-19T13:06:25;101171.72;;;9.31;100.00
4085;BME280;2057;50.858;6.572;2023-02-19T13:08:58;101177.66;;;9.18;100.00
4085;BME280;2057;50.858;6.572;2023-02-19T13:11:32;101196.28;;;9.18;100.00
4085;BME280;2057;50.858;6.572;2023-02-19T13:16:37;101198.69;;;9.17;100.00
4085;BME280;2057;50.858;6.572;2023-02-19T13:19:04;101192.84;;;9.18;100.00
4085;BME280;2057;50.858;6.572;2023-02-19T13:21:35;101182.81;;;9.19;100.00
4085;BME280;2057;50.858;6.572;2023-02-19T13:24:29;101176.88;;;9.32;100.00
4085;BME280;2057;50.858;6.572;2023-02-19T13:30:20;101184.22;;;9.41;100.00
4085;BME280;2057;50.858;6.572;2023-02-19T13:38:19;101191.06;;;9.55;100.00
4085;BME280;2057;50.858;6.572;2023-02-19T13:40:55;101191.19;;;9.57;100.00
4085;BME280;2057;50.858;6.572;2023-02-19T13:46:08;101186.88;;;9.56;100.00
4085;BME280;2057;50.858;6.572;2023-02-19T13:48:36;101194.38;;;9.54;100.00
4085;BME280;2057;50.858;6.572;2023-02-19T14:22:46;101249.84;;;9.50;100.00
4085;BME280;2057;50.858;6.572;2023-02-19T14:28:03;101249.28;;;9.54;100.00
4085;BME280;2057;50.858;6.572;2023-02-19T14:30:31;101253.19;;;9.49;100.00
4085;BME280;2057;50.858;6.572;2023-02-19T14:32:59;101248.75;;;9.46;100.00
4085;BME280;2057;50.858;6.572;2023-02-19T14:35:33;101264.66;;;9.44;100.00
4085;BME280;2057;50.858;6.572;2023-02-19T14:38:00;101251.28;;;9.46;100.00
4085;BME280;2057;50.858;6.572;2023-02-19T14:40:32;101265.25;;;9.53;100.00
4085;BME280;2057;50.858;6.572;2023-02-19T14:43:01;101268.38;;;9.49;100.00
4085;BME280;2057;50.858;6.572;2023-02-19T14:45:28;101264.69;;;9.57;100.00
4085;BME280;2057;50.858;6.572;2023-02-19T14:47:55;101271.25;;;9.41;100.00
4085;BME280;2057;50.858;6.572;2023-02-19T14:50:31;101283.16;;;9.42;100.00
4085;BME280;2057;50.858;6.572;2023-02-19T14:53:02;101288.91;;;9.40;100.00
4085;BME280;2057;50.858;6.572;2023-02-19T14:55:32;101281.41;;;9.41;100.00
4085;BME280;2057;50.858;6.572;2023-02-19T14:58:00;101278.31;;;9.46;100.00
4085;BME280;2057;50.858;6.572;2023-02-19T15:00:34;101273.63;;;9.52;100.00
4085;BME280;2057;50.858;6.572;2023-02-19T15:03:02;101268.69;;;9.53;100.00
4085;BME280;2057;50.858;6.572;2023-02-19T15:05:30;101271.69;;;9.48;100.00
4085;BME280;2057;50.858;6.572;2023-02-19T15:07:58;101278.53;;;9.49;100.00
4085;BME280;2057;50.858;6.572;2023-02-19T15:10:27;101275.41;;;9.53;100.00
4085;BME280;2057;50.858;6.572;2023-02-19T15:12:58;101266.81;;;9.51;100.00
4085;BME280;2057;50.858;6.572;2023-02-19T15:15:30;101274.09;;;9.46;100.00
4085;BME280;2057;50.858;6.572;2023-02-19T15:17:58;101266.88;;;9.39;100.00
4085;BME280;2057;50.858;6.572;2023-02-19T15:20:42;101275.63;;;9.31;100.00
4085;BME280;2057;50.858;6.572;2023-02-19T15:23:21;101267.41;;;9.21;100.00
4085;BME280;2057;50.858;6.572;2023-02-19T15:25:52;101255.03;;;9.26;100.00
4085;BME280;2057;50.858;6.572;2023-02-19T15:31:13;101249.19;;;9.14;100.00
4085;BME280;2057;50.858;6.572;2023-02-19T15:33:39;101247.66;;;9.04;100.00
4085;BME280;2057;50.858;6.572;2023-02-19T15:36:12;101240.19;;;9.05;100.00
4085;BME280;2057;50.858;6.572;2023-02-19T15:38:37;101235.31;;;9.08;100.00
4085;BME280;2057;50.858;6.572;2023-02-19T15:41:03;101219.41;;;9.11;100.00
4085;BME280;2057;50.858;6.572;2023-02-19T15:45:58;101212.72;;;9.12;100.00
4085;BME280;2057;50.858;6.572;2023-02-19T15:48:31;101203.81;;;9.05;100.00
4085;BME280;2057;50.858;6.572;2023-02-19T15:51:05;101208.44;;;9.10;100.00